createdAt,value
2023-01-11T00:00:39.900Z,99851.38
2023-01-11T00:03:07.325Z,99840.38
2023-01-11T00:05:39.321Z,99822.72
2023-01-11T00:08:06.805Z,99822.25
2023-01-11T00:10:34.305Z,99802.00
2023-01-11T00:13:01.882Z,99790.25
2023-01-11T00:15:28.597Z,99778.50
2023-01-11T00:17:58.487Z,99767.94
2023-01-11T00:20:25.623Z,99769.44
2023-01-11T00:22:52.465Z,99757.59
2023-01-11T00:25:19.344Z,99743.97
2023-01-11T00:27:47.428Z,99739.56
2023-01-11T00:30:14.214Z,99722.31
2023-01-11T00:32:40.916Z,99728.34
2023-01-11T00:35:08.669Z,99720.25
2023-01-11T00:37:35.587Z,99690.59
2023-01-11T00:40:05.688Z,99692.53
2023-01-11T00:42:51.101Z,99691.69
2023-01-11T00:45:36.390Z,99672.69
2023-01-11T00:48:06.066Z,99661.59
2023-01-11T00:50:38.827Z,99663.94
2023-01-11T00:53:07.284Z,99649.59
2023-01-11T00:55:34.283Z,99645.28
2023-01-11T00:58:01.656Z,99619.06
2023-01-11T01:00:29.389Z,99617.13
2023-01-11T01:02:56.189Z,99601.44
2023-01-11T01:05:22.914Z,99600.66
2023-01-11T01:07:50.142Z,99590.56
2023-01-11T01:10:18.571Z,99577.47
2023-01-11T01:13:04.742Z,99550.41
2023-01-11T01:15:32.157Z,99554.56
2023-01-11T01:17:58.936Z,99558.25
2023-01-11T01:20:26.235Z,99550.06
2023-01-11T01:22:52.906Z,99529.97
2023-01-11T01:25:19.926Z,99507.66
2023-01-11T01:27:46.772Z,99521.41
2023-01-11T01:30:13.936Z,99518.94
2023-01-11T01:32:42.922Z,99497.84
2023-01-11T01:35:09.894Z,99488.66
2023-01-11T01:37:37.139Z,99491.97
2023-01-11T01:40:05.320Z,99497.97
2023-01-11T01:42:32.009Z,99482.53
2023-01-11T01:45:07.059Z,99467.44
2023-01-11T01:47:45.580Z,99481.69
2023-01-11T01:50:25.675Z,99470.41
2023-01-11T01:52:57.810Z,99433.63
2023-01-11T01:55:28.946Z,99448.34
2023-01-11T01:57:57.828Z,99442.69
2023-01-11T02:00:24.642Z,99430.31
2023-01-11T02:02:52.219Z,99438.16
2023-01-11T02:05:19.181Z,99428.09
2023-01-11T02:07:47.344Z,99396.81
2023-01-11T02:10:18.417Z,99393.53
2023-01-11T02:12:51.073Z,99391.81
2023-01-11T02:15:20.161Z,99389.97
2023-01-11T02:17:46.979Z,99383.47
2023-01-11T02:20:29.105Z,99360.50
2023-01-11T02:22:58.893Z,99368.59
2023-01-11T02:26:02.643Z,99346.63
2023-01-11T02:29:16.855Z,99361.72
2023-01-11T02:32:00.351Z,99343.69
2023-01-11T02:34:32.447Z,99351.66
2023-01-11T02:37:05.090Z,99348.94
2023-01-11T02:40:03.105Z,99322.53
2023-01-11T02:43:00.398Z,99330.16
2023-01-11T02:45:42.267Z,99320.94
2023-01-11T02:48:14.651Z,99298.19
2023-01-11T02:50:48.476Z,99299.09
2023-01-11T02:53:37.182Z,99301.28
2023-01-11T02:56:09.857Z,99310.63
2023-01-11T02:58:38.973Z,99310.25
2023-01-11T03:01:06.296Z,99308.16
2023-01-11T03:03:33.847Z,99294.25
2023-01-11T03:06:33.111Z,99269.56
2023-01-11T03:09:15.185Z,99276.53
2023-01-11T03:12:29.001Z,99280.38
2023-01-11T03:15:07.763Z,99263.66
2023-01-11T03:18:00.641Z,99254.63
2023-01-11T03:20:35.614Z,99254.16
2023-01-11T03:23:41.006Z,99241.78
2023-01-11T03:26:21.627Z,99234.13
2023-01-11T03:29:27.095Z,99218.22
2023-01-11T03:32:09.313Z,99212.56
2023-01-11T03:34:48.243Z,99207.16
2023-01-11T03:37:31.533Z,99206.59
2023-01-11T03:40:11.672Z,99202.38
2023-01-11T03:43:04.594Z,99195.88
2023-01-11T03:45:38.484Z,99174.47
2023-01-11T03:48:09.907Z,99194.97
2023-01-11T03:50:41.044Z,99191.75
2023-01-11T03:53:09.962Z,99185.34
2023-01-11T03:55:44.492Z,99160.50
2023-01-11T03:58:11.313Z,99164.31
2023-01-11T04:00:38.177Z,99171.47
2023-01-11T04:03:05.961Z,99170.72
2023-01-11T04:05:35.465Z,99165.19
2023-01-11T04:08:02.207Z,99156.28
2023-01-11T04:10:29.398Z,99155.97
2023-01-11T04:12:56.300Z,99159.97
2023-01-11T04:15:23.186Z,99158.72
2023-01-11T04:17:51.370Z,99167.53
2023-01-11T04:20:18.159Z,99146.19
2023-01-11T04:22:48.282Z,99153.47
2023-01-11T04:25:16.811Z,99160.75
2023-01-11T04:27:44.838Z,99141.22
2023-01-11T04:30:19.003Z,99147.78
2023-01-11T04:32:49.101Z,99141.28
2023-01-11T04:35:16.387Z,99138.13
2023-01-11T04:37:45.386Z,99138.03
2023-01-11T04:40:15.095Z,99143.25
2023-01-11T04:42:49.271Z,99145.97
2023-01-11T04:45:18.692Z,99135.59
2023-01-11T04:47:59.518Z,99104.47
2023-01-11T04:50:28.128Z,99090.94
2023-01-11T04:52:55.192Z,99102.19
2023-01-11T04:55:22.017Z,99100.59
2023-01-11T04:57:48.777Z,99101.91
2023-01-11T05:00:19.305Z,99111.84
2023-01-11T05:02:46.300Z,99104.91
2023-01-11T05:05:17.498Z,99084.53
2023-01-11T05:07:44.416Z,99088.28
2023-01-11T05:10:11.582Z,99095.94
2023-01-11T05:12:38.760Z,99090.38
2023-01-11T05:15:07.061Z,99100.78
2023-01-11T05:17:34.112Z,99095.53
2023-01-11T05:20:01.042Z,99093.13
2023-01-11T05:22:27.811Z,99096.94
2023-01-11T05:24:54.477Z,99080.16
2023-01-11T05:27:21.394Z,99080.44
2023-01-11T05:29:48.345Z,99090.97
2023-01-11T05:32:15.953Z,99077.03
2023-01-11T05:34:42.824Z,99094.53
2023-01-11T05:37:10.743Z,99096.25
2023-01-11T05:39:37.841Z,99095.84
2023-01-11T05:42:06.943Z,99091.44
2023-01-11T05:44:52.199Z,99091.72
2023-01-11T05:47:19.242Z,99083.88
2023-01-11T05:49:46.757Z,99081.16
2023-01-11T05:52:13.486Z,99085.03
2023-01-11T05:54:40.872Z,99105.41
2023-01-11T05:57:11.140Z,99090.00
2023-01-11T05:59:37.971Z,99100.69
2023-01-11T06:02:05.299Z,99098.25
2023-01-11T06:04:32.021Z,99104.25
2023-01-11T06:06:58.831Z,99098.25
2023-01-11T06:09:25.978Z,99105.13
2023-01-11T06:11:52.845Z,99116.78
2023-01-11T06:14:19.715Z,99119.63
2023-01-11T06:16:46.676Z,99111.38
2023-01-11T06:19:13.844Z,99125.78
2023-01-11T06:21:45.054Z,99119.66
2023-01-11T06:24:13.991Z,99130.47
2023-01-11T06:26:42.059Z,99145.13
2023-01-11T06:29:08.802Z,99132.19
2023-01-11T06:31:36.058Z,99129.91
2023-01-11T06:34:02.796Z,99133.16
2023-01-11T06:36:29.943Z,99137.31
2023-01-11T06:38:56.677Z,99129.63
2023-01-11T06:41:23.358Z,99134.31
2023-01-11T06:43:50.470Z,99117.66
2023-01-11T06:46:17.276Z,99121.47
2023-01-11T06:48:44.539Z,99135.59
2023-01-11T06:51:12.310Z,99135.59
2023-01-11T06:53:40.153Z,99140.72
2023-01-11T06:56:07.627Z,99133.19
2023-01-11T06:58:34.326Z,99136.03
2023-01-11T07:01:01.367Z,99132.88
2023-01-11T07:03:28.266Z,99133.75
2023-01-11T07:05:57.076Z,99141.03
2023-01-11T07:08:27.553Z,99137.59
2023-01-11T07:10:55.234Z,99141.59
2023-01-11T07:13:29.554Z,99149.00
2023-01-11T07:16:00.689Z,99141.59
2023-01-11T07:18:31.891Z,99146.75
2023-01-11T07:21:02.464Z,99148.75
2023-01-11T07:23:29.153Z,99159.56
2023-01-11T07:25:56.238Z,99163.69
2023-01-11T07:28:23.015Z,99174.09
2023-01-11T07:30:58.174Z,99172.94
2023-01-11T07:33:26.324Z,99170.94
2023-01-11T07:35:53.576Z,99172.25
2023-01-11T07:38:20.283Z,99173.38
2023-01-11T07:40:47.151Z,99172.53
2023-01-11T07:43:15.092Z,99165.97
2023-01-11T07:45:46.395Z,99174.09
2023-01-11T07:48:16.730Z,99173.81
2023-01-11T07:50:45.303Z,99173.22
2023-01-11T07:53:13.300Z,99172.53
2023-01-11T07:55:40.932Z,99175.66
2023-01-11T07:58:10.834Z,99188.06
2023-01-11T08:00:37.657Z,99189.91
2023-01-11T08:03:04.587Z,99190.06
2023-01-11T08:05:31.425Z,99193.06
2023-01-11T08:07:58.510Z,99193.47
2023-01-11T08:10:25.315Z,99207.31
2023-01-11T08:13:10.631Z,99208.31
2023-01-11T08:15:37.432Z,99209.03
2023-01-11T08:18:05.832Z,99218.16
2023-01-11T08:20:32.741Z,99223.69
2023-01-11T08:23:05.825Z,99224.84
2023-01-11T08:25:33.524Z,99223.72
2023-01-11T08:28:02.269Z,99228.25
2023-01-11T08:30:29.741Z,99226.25
2023-01-11T08:32:57.591Z,99229.25
2023-01-11T08:35:27.751Z,99232.56
2023-01-11T08:37:54.510Z,99233.97
2023-01-11T08:40:23.867Z,99238.69
2023-01-11T08:43:00.162Z,99237.81
2023-01-11T08:45:26.851Z,99243.69
2023-01-11T08:47:54.813Z,99245.94
2023-01-11T08:50:22.537Z,99255.09
2023-01-11T08:52:51.145Z,99236.41
2023-01-11T08:55:18.649Z,99243.66
2023-01-11T08:57:46.032Z,99232.28
2023-01-11T09:00:13.666Z,99227.56
2023-01-11T09:02:40.400Z,99226.56
2023-01-11T09:05:07.458Z,99216.72
2023-01-11T09:07:34.182Z,99212.84
2023-01-11T09:10:00.991Z,99212.03
2023-01-11T09:12:27.786Z,99216.44
2023-01-11T09:14:54.531Z,99221.72
2023-01-11T09:17:21.267Z,99232.28
2023-01-11T09:19:47.981Z,99230.56
2023-01-11T09:22:14.951Z,99245.09
2023-01-11T09:24:41.768Z,99247.94
2023-01-11T09:27:09.510Z,99250.81
2023-01-11T09:29:37.378Z,99256.34
2023-01-11T09:32:04.926Z,99263.75
2023-01-11T09:34:31.956Z,99258.66
2023-01-11T09:37:00.751Z,99258.50
2023-01-11T09:39:28.895Z,99263.06
2023-01-11T09:42:07.980Z,99269.34
2023-01-11T09:44:37.875Z,99271.34
2023-01-11T09:47:16.661Z,99265.63
2023-01-11T09:49:54.570Z,99275.19
2023-01-11T09:52:33.524Z,99273.03
2023-01-11T09:55:01.362Z,99273.03
2023-01-11T09:57:53.899Z,99267.63
2023-01-11T10:00:27.203Z,99275.31
2023-01-11T10:03:34.449Z,99273.63
2023-01-11T10:06:23.077Z,99278.03
2023-01-11T10:18:34.073Z,99297.88
2023-01-11T10:18:49.381Z,99308.53
2023-01-11T10:21:31.329Z,99306.72
2023-01-11T10:24:12.497Z,99320.41
2023-01-11T10:26:40.381Z,99332.25
2023-01-11T10:29:22.364Z,99329.53
2023-01-11T10:32:02.602Z,99345.50
2023-01-11T10:34:59.060Z,99353.63
2023-01-11T10:37:58.018Z,99374.75
2023-01-11T10:40:39.118Z,99383.56
2023-01-11T10:43:24.273Z,99391.31
2023-01-11T10:46:27.224Z,99394.00
2023-01-11T10:49:28.615Z,99399.69
2023-01-11T10:52:04.027Z,99406.97
2023-01-11T10:54:33.347Z,99415.91
2023-01-11T10:57:23.006Z,99411.97
2023-01-11T11:00:00.041Z,99416.09
2023-01-11T11:02:38.631Z,99417.50
2023-01-11T11:05:28.701Z,99425.75
2023-01-11T11:08:01.046Z,99437.03
2023-01-11T11:10:50.792Z,99432.91
2023-01-11T11:13:32.577Z,99437.66
2023-01-11T11:16:17.997Z,99437.09
2023-01-11T11:18:44.650Z,99451.91
2023-01-11T11:21:23.825Z,99448.47
2023-01-11T11:23:57.478Z,99463.03
2023-01-11T11:26:31.332Z,99466.47
2023-01-11T11:29:07.300Z,99469.16
2023-01-11T11:31:37.403Z,99471.31
2023-01-11T11:34:07.427Z,99474.25
2023-01-11T11:36:46.343Z,99482.94
2023-01-11T11:39:25.946Z,99478.13
2023-01-11T11:41:58.305Z,99476.25
2023-01-11T11:44:27.749Z,99486.69
2023-01-11T11:47:03.044Z,99494.94
2023-01-11T11:49:32.177Z,99587.81
2023-01-11T11:52:00.954Z,99593.94
2023-01-11T11:54:27.624Z,99592.50
2023-01-11T11:56:57.323Z,99594.47
2023-01-11T11:59:28.491Z,99587.06
2023-01-11T12:02:04.093Z,99592.91
2023-01-11T12:04:48.583Z,99595.16
2023-01-11T12:07:21.675Z,99595.16
2023-01-11T12:09:55.082Z,99590.47
2023-01-11T12:12:26.381Z,99603.75
2023-01-11T12:15:09.555Z,99616.56
2023-01-11T12:17:37.050Z,99612.59
2023-01-11T12:20:23.819Z,99615.88
2023-01-11T12:23:09.100Z,99587.75
2023-01-11T12:25:54.678Z,99582.09
2023-01-11T12:28:46.119Z,99598.34
2023-01-11T12:31:34.552Z,99610.44
2023-01-11T12:34:16.532Z,99618.81
2023-01-11T12:37:05.195Z,99623.25
2023-01-11T12:39:40.914Z,99646.03
2023-01-11T12:42:21.865Z,99649.88
2023-01-11T12:44:58.493Z,99658.38
2023-01-11T12:47:56.473Z,99671.63
2023-01-11T12:51:17.116Z,99676.81
2023-01-11T12:54:05.157Z,99684.06
2023-01-11T12:56:51.903Z,99690.84
2023-01-11T12:59:29.442Z,99686.47
2023-01-11T13:02:21.113Z,99702.19
2023-01-11T13:05:26.856Z,99730.41
2023-01-11T13:07:56.479Z,99736.66
2023-01-11T13:10:35.675Z,99749.63
2023-01-11T13:13:36.425Z,99742.34
2023-01-11T13:16:14.305Z,99739.31
2023-01-11T13:18:45.274Z,99765.97
2023-01-11T13:21:32.616Z,99777.06
2023-01-11T13:24:10.698Z,99780.75
2023-01-11T13:26:44.904Z,99805.38
2023-01-11T13:29:17.125Z,99809.81
2023-01-11T13:31:46.934Z,99817.53
2023-01-11T13:34:25.321Z,99822.81
2023-01-11T13:36:59.598Z,99830.06
2023-01-11T13:39:40.797Z,99840.41
2023-01-11T13:42:19.224Z,99843.25
2023-01-11T13:45:00.090Z,99860.50
2023-01-11T13:47:37.622Z,99872.91
2023-01-11T13:50:04.348Z,99884.84
2023-01-11T13:52:58.404Z,99903.09
2023-01-11T13:55:31.959Z,99904.47
2023-01-11T13:58:05.874Z,99919.81
2023-01-11T14:00:41.715Z,99931.63
2023-01-11T14:03:42.589Z,99936.81
2023-01-11T14:06:22.361Z,99948.75
2023-01-11T14:09:05.955Z,99958.09
2023-01-11T14:12:09.961Z,99973.81
2023-01-11T14:15:09.853Z,99982.41
2023-01-11T14:17:55.531Z,99994.59
2023-01-11T14:20:40.443Z,100008.84
2023-01-11T14:23:13.937Z,100012.78
2023-01-11T14:26:09.439Z,100041.91
2023-01-11T14:28:59.825Z,100043.38
2023-01-11T14:31:32.411Z,100050.66
2023-01-11T14:34:36.202Z,100069.09
2023-01-11T14:37:40.460Z,100077.91
2023-01-11T14:40:42.024Z,100081.06
2023-01-11T14:43:12.842Z,100093.16
2023-01-11T14:45:48.565Z,100099.88
2023-01-11T14:48:28.558Z,100099.13
2023-01-11T14:51:05.730Z,100100.84
2023-01-11T14:53:39.530Z,100108.66
2023-01-11T14:56:43.947Z,100121.44
2023-01-11T14:59:40.559Z,100115.78
2023-01-11T15:02:14.658Z,100115.56
2023-01-11T15:04:56.535Z,100122.22
2023-01-11T15:07:31.475Z,100116.53
2023-01-11T15:10:00.422Z,100128.22
2023-01-11T15:12:38.455Z,100124.28
2023-01-11T15:15:22.669Z,100126.91
2023-01-11T15:18:15.533Z,100123.50
2023-01-11T15:20:56.654Z,100115.63
2023-01-11T15:23:24.599Z,100124.13
2023-01-11T15:26:01.051Z,100118.47
2023-01-11T15:28:32.958Z,100124.53
2023-01-11T15:31:03.338Z,100131.16
2023-01-11T15:33:45.891Z,100141.75
2023-01-11T15:36:12.616Z,100146.28
2023-01-11T15:38:54.359Z,100150.84
2023-01-11T15:41:53.123Z,100154.13
2023-01-11T15:44:32.445Z,100165.84
2023-01-11T15:47:11.105Z,100176.81
2023-01-11T15:49:38.034Z,100176.28
2023-01-11T15:52:50.503Z,100174.88
2023-01-11T15:55:55.374Z,100189.00
2023-01-11T15:58:40.440Z,100183.34
2023-01-11T16:01:28.446Z,100204.66
2023-01-11T16:04:32.120Z,100198.63
2023-01-11T16:07:08.103Z,100210.09
2023-01-11T16:09:57.957Z,100212.38
2023-01-11T16:12:42.967Z,100218.53
2023-01-11T16:15:36.879Z,100216.03
2023-01-11T16:18:20.021Z,100209.44
2023-01-11T16:20:59.701Z,100215.91
2023-01-11T16:23:26.359Z,100222.00
2023-01-11T16:25:57.393Z,100227.00
2023-01-11T16:28:25.638Z,100242.78
2023-01-11T16:31:01.756Z,100229.03
2023-01-11T16:33:31.555Z,100236.28
2023-01-11T16:36:10.514Z,100235.41
2023-01-11T16:39:07.338Z,100224.59
2023-01-11T16:42:07.762Z,100221.53
2023-01-11T16:45:00.045Z,100229.34
2023-01-11T16:47:27.024Z,100232.13
2023-01-11T16:50:33.808Z,100232.66
2023-01-11T16:53:06.164Z,100232.69
2023-01-11T16:55:34.026Z,100236.38
2023-01-11T16:58:04.380Z,100234.94
2023-01-11T17:00:41.749Z,100233.53
2023-01-11T17:03:24.084Z,100244.44
2023-01-11T17:06:09.226Z,100251.81
2023-01-11T17:08:44.199Z,100237.88
2023-01-11T17:11:10.869Z,100249.22
2023-01-11T17:13:59.165Z,100239.38
2023-01-11T17:16:32.053Z,100232.91
2023-01-11T17:19:05.736Z,100245.75
2023-01-11T17:21:32.379Z,100241.31
2023-01-11T17:24:01.957Z,100230.28
2023-01-11T17:26:37.905Z,100237.88
2023-01-11T17:29:05.482Z,100230.09
2023-01-11T17:31:36.943Z,100231.59
2023-01-11T17:34:24.371Z,100232.03
2023-01-11T17:36:51.530Z,100236.22
2023-01-11T17:39:32.180Z,100234.28
2023-01-11T17:42:30.088Z,100237.53
2023-01-11T17:45:13.074Z,100228.78
2023-01-11T17:47:41.094Z,100219.47
2023-01-11T17:50:26.440Z,100226.50
2023-01-11T17:53:03.005Z,100235.38
2023-01-11T17:55:29.991Z,100224.03
2023-01-11T17:58:19.018Z,100224.03
2023-01-11T18:01:07.763Z,100221.00
2023-01-11T18:03:43.702Z,100213.84
2023-01-11T18:06:11.995Z,100204.44
2023-01-11T18:08:38.887Z,100215.38
2023-01-11T18:11:05.978Z,100222.66
2023-01-11T18:13:34.905Z,100218.28
2023-01-11T18:16:02.528Z,100223.25
2023-01-11T18:18:44.927Z,100217.00
2023-01-11T18:21:27.014Z,100230.63
2023-01-11T18:24:08.926Z,100224.88
2023-01-11T18:26:40.399Z,100231.81
2023-01-11T18:29:19.380Z,100215.16
2023-01-11T18:31:46.397Z,100237.44
2023-01-11T18:34:13.121Z,100236.56
2023-01-11T18:36:39.857Z,100233.31
2023-01-11T18:39:11.807Z,100236.66
2023-01-11T18:41:57.974Z,100250.31
2023-01-11T18:44:25.051Z,100247.91
2023-01-11T18:46:51.840Z,100244.66
2023-01-11T18:49:18.553Z,100236.66
2023-01-11T18:51:45.333Z,100244.03
2023-01-11T18:54:16.547Z,100240.56
2023-01-11T18:56:43.389Z,100250.59
2023-01-11T18:59:10.109Z,100242.84
2023-01-11T19:01:52.715Z,100247.34
2023-01-11T19:04:24.838Z,100247.75
2023-01-11T19:06:52.469Z,100247.22
2023-01-11T19:09:19.301Z,100247.16
2023-01-11T19:11:46.182Z,100253.16
2023-01-11T19:14:12.867Z,100249.28
2023-01-11T19:16:39.749Z,100244.09
2023-01-11T19:19:06.569Z,100248.31
2023-01-11T19:21:35.591Z,100263.44
2023-01-11T19:24:02.542Z,100253.19
2023-01-11T19:26:32.001Z,100248.66
2023-01-11T19:28:58.693Z,100247.69
2023-01-11T19:31:25.601Z,100254.81
2023-01-11T19:33:52.323Z,100257.94
2023-01-11T19:36:19.268Z,100268.09
2023-01-11T19:38:46.039Z,100256.47
2023-01-11T19:41:15.471Z,100264.16
2023-01-11T19:43:45.063Z,100273.56
2023-01-11T19:46:13.589Z,100268.16
2023-01-11T19:48:40.496Z,100256.97
2023-01-11T19:51:10.664Z,100245.94
2023-01-11T19:53:37.585Z,100249.59
2023-01-11T19:56:06.407Z,100248.72
2023-01-11T19:58:37.089Z,100242.22
2023-01-11T20:01:11.521Z,100241.38
2023-01-11T20:03:41.251Z,100241.91
2023-01-11T20:06:09.052Z,100238.66
2023-01-11T20:08:41.166Z,100243.97
2023-01-11T20:11:10.981Z,100248.00
2023-01-11T20:13:37.751Z,100244.75
2023-01-11T20:16:12.979Z,100255.09
2023-01-11T20:18:42.415Z,100257.56
2023-01-11T20:21:13.762Z,100242.84
2023-01-11T20:23:40.448Z,100262.13
2023-01-11T20:26:07.834Z,100256.38
2023-01-11T20:28:34.798Z,100262.09
2023-01-11T20:31:06.706Z,100273.31
2023-01-11T20:33:33.630Z,100261.47
2023-01-11T20:36:00.347Z,100255.16
2023-01-11T20:38:29.018Z,100241.78
2023-01-11T20:40:55.771Z,100236.94
2023-01-11T20:43:22.621Z,100235.84
2023-01-11T20:45:59.404Z,100231.75
2023-01-11T20:48:26.188Z,100235.34
2023-01-11T20:50:52.954Z,100228.06
2023-01-11T20:53:19.668Z,100233.44
2023-01-11T20:55:46.584Z,100223.31
2023-01-11T20:58:13.518Z,100220.81
2023-01-11T21:00:40.274Z,100217.97
2023-01-11T21:03:06.955Z,100211.53
2023-01-11T21:05:37.277Z,100223.19
2023-01-11T21:08:04.101Z,100229.25
2023-01-11T21:10:30.791Z,100219.72
2023-01-11T21:15:24.948Z,100218.38
2023-01-11T21:17:51.600Z,100212.75
2023-01-11T21:20:18.378Z,100204.09
2023-01-11T21:22:45.092Z,100216.50
2023-01-11T21:25:11.729Z,100209.72
2023-01-11T21:27:39.061Z,100201.16
2023-01-11T21:30:06.356Z,100198.78
2023-01-11T21:32:33.091Z,100186.34
2023-01-11T21:34:59.738Z,100177.69
2023-01-11T21:37:26.508Z,100175.00
2023-01-11T21:39:53.304Z,100168.00
2023-01-11T21:42:19.971Z,100161.50
2023-01-11T21:44:46.623Z,100161.00
2023-01-11T21:47:14.755Z,100151.72
2023-01-11T21:49:41.429Z,100152.56
2023-01-11T21:52:08.254Z,100152.34
2023-01-11T21:54:35.046Z,100156.78
2023-01-11T21:57:01.816Z,100142.75
2023-01-11T21:59:30.059Z,100140.25
2023-01-11T22:02:00.111Z,100139.69
2023-01-11T22:04:26.813Z,100132.69
2023-01-11T22:06:59.423Z,100109.16
2023-01-11T22:09:27.593Z,100110.13
2023-01-11T22:11:55.494Z,100106.47
2023-01-11T22:14:22.217Z,100102.66
2023-01-11T22:16:49.019Z,100085.06
2023-01-11T22:19:16.223Z,100092.94
2023-01-11T22:21:43.407Z,100088.38
2023-01-11T22:24:11.895Z,100087.94
2023-01-11T22:26:39.259Z,100087.53
2023-01-11T22:29:18.068Z,100080.19
2023-01-11T22:31:51.459Z,100071.88
2023-01-11T22:34:19.309Z,100067.44
2023-01-11T22:36:47.049Z,100064.91
2023-01-11T22:39:15.589Z,100063.75
2023-01-11T22:41:45.621Z,100063.31
2023-01-11T22:44:13.515Z,100064.28
2023-01-11T22:46:40.517Z,100061.81
2023-01-11T22:49:07.440Z,100059.56
2023-01-11T22:51:34.742Z,100035.09
2023-01-11T22:54:01.971Z,100058.81
2023-01-11T22:56:29.496Z,100044.75
2023-01-11T22:58:57.143Z,100041.63
2023-01-11T23:01:43.157Z,100045.59
2023-01-11T23:04:12.813Z,100031.66
2023-01-11T23:06:41.349Z,100031.75
2023-01-11T23:09:14.784Z,100048.53
2023-01-11T23:12:01.542Z,100027.97
2023-01-11T23:14:33.233Z,100029.78
2023-01-11T23:17:08.610Z,100036.31
2023-01-11T23:19:40.638Z,100028.59
2023-01-11T23:22:09.353Z,100032.03
2023-01-11T23:24:37.695Z,100018.22
2023-01-11T23:27:05.092Z,100020.97
2023-01-11T23:29:31.957Z,100010.19
2023-01-11T23:31:58.841Z,99991.66
2023-01-11T23:34:25.600Z,99984.00
2023-01-11T23:36:52.299Z,99973.19
2023-01-11T23:39:19.364Z,99970.63
2023-01-11T23:42:04.465Z,99962.63
2023-01-11T23:44:31.574Z,99951.28
2023-01-11T23:47:16.984Z,99941.66
2023-01-11T23:49:43.831Z,99919.41
2023-01-11T23:52:11.375Z,99921.66
2023-01-11T23:54:38.180Z,99920.97
2023-01-11T23:57:05.116Z,99904.88
2023-01-11T23:59:32.372Z,99902.41
